createdAt,value
2023-01-09T00:02:01.882Z,0.60
2023-01-09T00:04:28.492Z,0.69
2023-01-09T00:06:55.933Z,0.26
2023-01-09T00:09:24.277Z,0.65
2023-01-09T00:11:52.168Z,0.51
2023-01-09T00:14:19.682Z,0.51
2023-01-09T00:16:47.001Z,0.63
2023-01-09T00:19:14.013Z,0.03
2023-01-09T00:21:40.903Z,0.56
2023-01-09T00:24:08.000Z,0.58
2023-01-09T00:26:35.735Z,0.48
2023-01-09T00:29:02.412Z,0.57
2023-01-09T00:31:29.053Z,0.60
2023-01-09T00:34:00.237Z,0.62
2023-01-09T00:36:27.667Z,0.62
2023-01-09T00:38:54.357Z,0.45
2023-01-09T00:41:26.747Z,0.55
2023-01-09T00:43:57.008Z,0.49
2023-01-09T00:46:31.093Z,0.11
2023-01-09T00:48:58.578Z,0.28
2023-01-09T00:51:25.528Z,0.27
2023-01-09T00:53:52.630Z,0.34
2023-01-09T00:56:20.952Z,0.58
2023-01-09T00:58:48.387Z,0.59
2023-01-09T01:01:15.564Z,-1.94
2023-01-09T01:03:42.239Z,0.60
2023-01-09T01:06:27.790Z,0.13
2023-01-09T01:08:55.981Z,0.38
2023-01-09T01:11:23.457Z,0.01
2023-01-09T01:13:50.598Z,-0.61
2023-01-09T01:16:18.455Z,-0.71
2023-01-09T01:18:45.552Z,-0.49
2023-01-09T01:21:14.127Z,-0.25
2023-01-09T01:23:40.826Z,-0.11
2023-01-09T01:26:15.517Z,-2.60
2023-01-09T01:28:42.769Z,-0.19
2023-01-09T01:31:16.535Z,-0.17
2023-01-09T01:33:43.146Z,-0.23
2023-01-09T01:36:10.402Z,-0.16
2023-01-09T01:38:37.157Z,-0.52
2023-01-09T01:41:04.856Z,-0.54
2023-01-09T01:43:51.302Z,-0.65
2023-01-09T01:46:18.992Z,-0.72
2023-01-09T01:48:48.308Z,-0.61
2023-01-09T01:51:18.365Z,-0.54
2023-01-09T01:53:50.316Z,-1.20
2023-01-09T01:56:19.579Z,-0.64
2023-01-09T01:59:03.467Z,-0.67
2023-01-09T02:01:31.016Z,-0.67
2023-01-09T02:04:01.193Z,-0.45
2023-01-09T02:06:29.839Z,-0.38
2023-01-09T02:08:57.846Z,-0.42
2023-01-09T02:11:24.835Z,-0.98
2023-01-09T02:13:52.328Z,-1.59
2023-01-09T02:16:30.645Z,-1.74
2023-01-09T02:19:44.740Z,-1.34
2023-01-09T02:22:33.054Z,-1.35
2023-01-09T02:25:22.436Z,-1.47
2023-01-09T02:28:22.433Z,-1.37
2023-01-09T02:30:51.942Z,-1.34
2023-01-09T02:33:18.434Z,-1.27
2023-01-09T02:36:19.042Z,-1.22
2023-01-09T02:39:25.604Z,-1.23
2023-01-09T02:42:04.254Z,-1.17
2023-01-09T02:44:34.003Z,-1.12
2023-01-09T02:47:08.555Z,-0.99
2023-01-09T02:49:38.569Z,-0.99
2023-01-09T02:52:40.361Z,-0.98
2023-01-09T02:55:18.700Z,-1.00
2023-01-09T02:58:10.248Z,-0.95
2023-01-09T03:00:36.837Z,-0.97
2023-01-09T03:03:09.383Z,-0.87
2023-01-09T03:06:05.980Z,-0.79
2023-01-09T03:08:41.940Z,-1.26
2023-01-09T03:11:09.410Z,-0.75
2023-01-09T03:13:50.560Z,-0.61
2023-01-09T03:16:38.117Z,-0.59
2023-01-09T03:19:09.866Z,-1.63
2023-01-09T03:21:37.274Z,-1.08
2023-01-09T03:24:04.302Z,-0.82
2023-01-09T03:26:31.465Z,-0.61
2023-01-09T03:28:59.230Z,-0.62
2023-01-09T03:31:26.546Z,-0.55
2023-01-09T03:33:53.472Z,-0.55
2023-01-09T03:36:21.356Z,-0.63
2023-01-09T03:38:48.162Z,-0.52
2023-01-09T03:41:14.907Z,-0.64
2023-01-09T03:43:41.513Z,-0.35
2023-01-09T03:46:08.136Z,-0.33
2023-01-09T03:48:34.877Z,-0.27
2023-01-09T03:51:01.480Z,-0.07
2023-01-09T03:53:28.903Z,0.03
2023-01-09T03:55:57.450Z,0.08
2023-01-09T03:58:24.850Z,0.05
2023-01-09T04:00:52.644Z,0.18
2023-01-09T04:03:21.077Z,0.13
2023-01-09T04:05:49.659Z,0.42
2023-01-09T04:08:17.034Z,0.05
2023-01-09T04:10:48.323Z,0.16
2023-01-09T04:13:14.922Z,0.71
2023-01-09T04:15:41.775Z,0.30
2023-01-09T04:18:08.485Z,0.81
2023-01-09T04:20:35.189Z,0.86
2023-01-09T04:23:02.163Z,0.92
2023-01-09T04:25:28.754Z,0.57
2023-01-09T04:27:55.351Z,1.02
2023-01-09T04:30:22.047Z,1.04
2023-01-09T04:32:48.713Z,1.11
2023-01-09T04:35:15.368Z,1.22
2023-01-09T04:37:41.900Z,1.13
2023-01-09T04:40:10.497Z,0.80
2023-01-09T04:42:37.570Z,1.16
2023-01-09T04:45:06.416Z,1.09
2023-01-09T04:47:33.198Z,0.09
2023-01-09T04:50:00.981Z,1.40
2023-01-09T04:52:28.096Z,1.42
2023-01-09T04:54:54.656Z,1.47
2023-01-09T04:57:21.668Z,1.49
2023-01-09T04:59:48.242Z,1.61
2023-01-09T05:02:14.957Z,1.49
2023-01-09T05:04:42.020Z,-1.43
2023-01-09T05:07:08.812Z,1.68
2023-01-09T05:09:36.182Z,1.61
2023-01-09T05:12:03.386Z,1.50
2023-01-09T05:14:30.040Z,1.73
2023-01-09T05:16:56.669Z,1.65
2023-01-09T05:19:23.703Z,1.78
2023-01-09T05:21:50.426Z,1.54
2023-01-09T05:24:17.197Z,1.98
2023-01-09T05:26:43.756Z,1.94
2023-01-09T05:29:10.758Z,1.72
2023-01-09T05:31:37.490Z,1.82
2023-01-09T05:34:04.118Z,1.97
2023-01-09T05:36:30.721Z,1.97
2023-01-09T05:38:57.989Z,1.91
2023-01-09T05:41:26.247Z,1.99
2023-01-09T05:43:53.134Z,1.96
2023-01-09T05:46:19.863Z,1.97
2023-01-09T05:48:46.544Z,2.03
2023-01-09T05:51:13.279Z,2.06
2023-01-09T05:53:40.245Z,1.99
2023-01-09T05:56:07.115Z,2.07
2023-01-09T05:58:33.802Z,2.17
2023-01-09T06:01:00.535Z,2.29
2023-01-09T06:03:27.137Z,2.27
2023-01-09T06:05:53.762Z,2.41
2023-01-09T06:08:20.393Z,1.89
2023-01-09T06:10:47.704Z,2.53
2023-01-09T06:13:14.455Z,2.54
2023-01-09T06:15:41.482Z,1.83
2023-01-09T06:18:08.535Z,2.67
2023-01-09T06:20:35.156Z,2.79
2023-01-09T06:23:01.764Z,0.41
2023-01-09T06:25:28.334Z,2.97
2023-01-09T06:27:54.923Z,2.69
2023-01-09T06:30:21.629Z,3.04
2023-01-09T06:32:49.368Z,3.15
2023-01-09T06:35:20.727Z,2.98
2023-01-09T06:37:49.794Z,3.28
2023-01-09T06:40:17.580Z,3.02
2023-01-09T06:42:45.702Z,3.10
2023-01-09T06:45:13.322Z,2.90
2023-01-09T06:47:40.543Z,3.16
2023-01-09T06:50:09.469Z,3.17
2023-01-09T06:52:36.968Z,3.26
2023-01-09T06:55:03.993Z,3.38
2023-01-09T06:57:30.840Z,3.58
2023-01-09T06:59:57.927Z,3.44
2023-01-09T07:02:25.515Z,3.52
2023-01-09T07:04:52.087Z,3.68
2023-01-09T07:07:19.910Z,2.98
2023-01-09T07:09:46.713Z,3.61
2023-01-09T07:12:14.929Z,3.55
2023-01-09T07:14:41.885Z,3.79
2023-01-09T07:17:10.091Z,3.80
2023-01-09T07:19:36.803Z,3.80
2023-01-09T07:22:03.363Z,3.86
2023-01-09T07:24:29.935Z,3.91
2023-01-09T07:26:56.676Z,4.05
2023-01-09T07:29:23.257Z,4.12
2023-01-09T07:31:49.913Z,3.80
2023-01-09T07:34:16.463Z,4.26
2023-01-09T07:36:46.475Z,4.01
2023-01-09T07:39:13.711Z,4.43
2023-01-09T07:41:40.714Z,4.41
2023-01-09T07:44:09.582Z,4.43
2023-01-09T07:46:37.635Z,4.26
2023-01-09T07:49:04.528Z,4.66
2023-01-09T07:51:31.136Z,3.97
2023-01-09T07:53:57.752Z,4.61
2023-01-09T07:56:24.548Z,4.48
2023-01-09T07:58:51.109Z,4.26
2023-01-09T08:01:17.865Z,4.41
2023-01-09T08:03:44.485Z,4.64
2023-01-09T08:06:11.079Z,4.83
2023-01-09T08:08:37.640Z,4.68
2023-01-09T08:11:04.360Z,4.92
2023-01-09T08:13:31.039Z,4.96
2023-01-09T08:15:57.625Z,5.31
2023-01-09T08:18:24.303Z,5.33
2023-01-09T08:20:51.052Z,5.21
2023-01-09T08:23:17.882Z,5.50
2023-01-09T08:25:44.548Z,5.52
2023-01-09T08:28:11.170Z,5.16
2023-01-09T08:30:38.846Z,5.79
2023-01-09T08:33:05.971Z,5.83
2023-01-09T08:35:32.607Z,5.47
2023-01-09T08:37:59.242Z,5.48
2023-01-09T08:40:25.892Z,6.04
2023-01-09T08:43:10.914Z,6.09
2023-01-09T08:45:56.007Z,6.16
2023-01-09T08:48:22.597Z,6.21
2023-01-09T08:50:49.267Z,6.02
2023-01-09T08:53:15.879Z,5.80
2023-01-09T08:55:43.063Z,3.48
2023-01-09T08:58:09.758Z,6.07
2023-01-09T09:00:36.482Z,6.18
2023-01-09T09:03:03.175Z,6.07
2023-01-09T09:05:31.446Z,5.52
2023-01-09T09:07:59.107Z,5.31
2023-01-09T09:10:28.387Z,5.78
2023-01-09T09:12:57.369Z,5.69
2023-01-09T09:15:25.309Z,5.13
2023-01-09T09:17:54.568Z,3.62
2023-01-09T09:20:23.494Z,5.86
2023-01-09T09:22:50.608Z,6.09
2023-01-09T09:25:18.447Z,5.78
2023-01-09T09:27:45.457Z,6.27
2023-01-09T09:30:13.926Z,6.49
2023-01-09T09:32:41.019Z,6.42
2023-01-09T09:35:08.373Z,6.44
2023-01-09T09:37:35.081Z,6.54
2023-01-09T09:40:13.255Z,6.16
2023-01-09T09:43:02.909Z,6.56
2023-01-09T09:45:43.696Z,6.15
2023-01-09T09:48:53.774Z,6.52
2023-01-09T09:51:49.843Z,6.59
2023-01-09T09:54:25.888Z,6.39
2023-01-09T09:56:56.747Z,6.69
2023-01-09T09:59:27.324Z,5.84
2023-01-09T10:01:59.127Z,6.40
2023-01-09T10:04:28.759Z,5.93
2023-01-09T10:07:00.320Z,6.28
2023-01-09T10:09:55.663Z,6.50
2023-01-09T10:12:22.218Z,6.50
2023-01-09T10:14:48.865Z,6.59
2023-01-09T10:17:40.870Z,6.77
2023-01-09T10:20:22.749Z,6.89
2023-01-09T10:23:03.423Z,6.51
2023-01-09T10:25:50.229Z,7.09
2023-01-09T10:28:44.085Z,7.28
2023-01-09T10:32:06.157Z,7.47
2023-01-09T10:34:38.603Z,7.43
2023-01-09T10:37:11.005Z,6.91
2023-01-09T10:39:55.558Z,5.53
2023-01-09T10:42:48.972Z,6.62
2023-01-09T10:45:34.995Z,6.91
2023-01-09T10:48:09.903Z,6.52
2023-01-09T10:50:41.775Z,7.22
2023-01-09T10:53:20.638Z,7.23
2023-01-09T10:55:51.968Z,7.45
2023-01-09T10:58:21.123Z,7.48
2023-01-09T11:00:49.259Z,7.53
2023-01-09T11:03:21.933Z,7.62
2023-01-09T11:05:54.952Z,7.76
2023-01-09T11:08:24.558Z,7.84
2023-01-09T11:10:56.631Z,7.94
2023-01-09T11:13:33.720Z,7.98
2023-01-09T11:16:05.722Z,7.63
2023-01-09T11:18:35.120Z,7.92
2023-01-09T11:21:29.779Z,8.12
2023-01-09T11:23:57.483Z,8.08
2023-01-09T11:26:27.257Z,7.98
2023-01-09T11:29:06.431Z,7.97
2023-01-09T11:31:33.654Z,7.35
2023-01-09T11:34:00.512Z,7.99
2023-01-09T11:36:27.700Z,8.09
2023-01-09T11:38:57.038Z,8.02
2023-01-09T11:41:34.685Z,8.11
2023-01-09T11:44:04.032Z,7.51
2023-01-09T11:46:41.962Z,7.89
2023-01-09T11:49:22.279Z,8.09
2023-01-09T11:52:19.562Z,8.16
2023-01-09T11:54:55.429Z,8.22
2023-01-09T11:57:24.343Z,8.23
2023-01-09T11:59:50.950Z,8.33
2023-01-09T12:02:43.678Z,8.31
2023-01-09T12:05:35.064Z,8.35
2023-01-09T12:08:07.639Z,8.31
2023-01-09T12:10:49.589Z,8.28
2023-01-09T12:13:19.030Z,8.11
2023-01-09T12:16:23.302Z,8.22
2023-01-09T12:19:23.994Z,8.36
2023-01-09T12:22:13.592Z,8.32
2023-01-09T12:24:40.080Z,8.36
2023-01-09T12:27:36.554Z,8.38
2023-01-09T12:30:26.776Z,8.43
2023-01-09T12:33:19.606Z,8.30
2023-01-09T12:36:01.865Z,7.39
2023-01-09T12:39:00.900Z,8.35
2023-01-09T12:41:48.194Z,7.91
2023-01-09T12:44:51.313Z,8.36
2023-01-09T12:47:34.706Z,8.38
2023-01-09T12:50:16.435Z,8.38
2023-01-09T12:53:06.218Z,8.45
2023-01-09T12:55:37.193Z,8.55
2023-01-09T12:58:17.321Z,8.23
2023-01-09T13:00:50.077Z,8.63
2023-01-09T13:03:49.391Z,8.68
2023-01-09T13:06:19.439Z,8.40
2023-01-09T13:08:53.371Z,8.69
2023-01-09T13:11:31.620Z,8.69
2023-01-09T13:14:04.291Z,8.49
2023-01-09T13:16:37.338Z,8.89
2023-01-09T13:19:13.241Z,8.76
2023-01-09T13:21:41.211Z,8.45
2023-01-09T13:24:15.324Z,8.73
2023-01-09T13:26:47.148Z,8.75
2023-01-09T13:29:25.116Z,8.59
2023-01-09T13:32:12.071Z,8.58
2023-01-09T13:34:39.812Z,8.46
2023-01-09T13:37:33.023Z,8.59
2023-01-09T13:40:02.732Z,8.59
2023-01-09T13:42:35.978Z,8.66
2023-01-09T13:45:27.106Z,8.35
2023-01-09T13:48:14.524Z,8.15
2023-01-09T13:50:42.598Z,8.08
2023-01-09T13:53:32.519Z,8.20
2023-01-09T13:55:59.410Z,7.61
2023-01-09T13:58:32.096Z,6.97
2023-01-09T14:00:58.847Z,7.89
2023-01-09T14:03:35.124Z,7.30
2023-01-09T14:06:01.675Z,7.93
2023-01-09T14:08:30.169Z,7.99
2023-01-09T14:11:02.153Z,8.00
2023-01-09T14:14:00.226Z,8.11
2023-01-09T14:16:27.218Z,8.06
2023-01-09T14:18:57.509Z,8.03
2023-01-09T14:21:24.307Z,7.69
2023-01-09T14:23:59.224Z,7.82
2023-01-09T14:26:57.275Z,7.76
2023-01-09T14:29:39.947Z,7.77
2023-01-09T14:32:26.477Z,7.73
2023-01-09T14:35:03.578Z,7.19
2023-01-09T14:37:31.128Z,7.55
2023-01-09T14:39:58.753Z,7.56
2023-01-09T14:42:29.492Z,7.04
2023-01-09T14:44:58.791Z,7.47
2023-01-09T14:47:31.255Z,7.51
2023-01-09T14:50:21.551Z,7.61
2023-01-09T14:52:51.870Z,7.45
2023-01-09T14:55:26.825Z,7.36
2023-01-09T14:57:55.338Z,6.36
2023-01-09T15:00:23.336Z,6.36
2023-01-09T15:02:53.553Z,6.42
2023-01-09T15:05:26.483Z,6.33
2023-01-09T15:08:01.770Z,6.43
2023-01-09T15:10:32.601Z,6.54
2023-01-09T15:13:01.814Z,6.60
2023-01-09T15:15:28.819Z,6.48
2023-01-09T15:18:07.855Z,6.61
2023-01-09T15:20:35.100Z,6.17
2023-01-09T15:23:04.259Z,6.16
2023-01-09T15:25:38.770Z,6.04
2023-01-09T15:28:27.238Z,6.16
2023-01-09T15:31:07.406Z,5.77
2023-01-09T15:33:35.294Z,5.44
2023-01-09T15:36:05.436Z,5.51
2023-01-09T15:38:33.528Z,5.37
2023-01-09T15:41:13.413Z,5.73
2023-01-09T15:43:43.141Z,5.81
2023-01-09T15:46:12.088Z,5.83
2023-01-09T15:48:38.824Z,5.77
2023-01-09T15:51:14.489Z,5.75
2023-01-09T15:53:42.869Z,5.26
2023-01-09T15:56:12.426Z,5.69
2023-01-09T15:58:46.985Z,5.48
2023-01-09T16:01:19.535Z,5.72
2023-01-09T16:03:46.278Z,5.70
2023-01-09T16:06:30.760Z,5.50
2023-01-09T16:08:59.662Z,5.01
2023-01-09T16:11:31.161Z,5.37
2023-01-09T16:14:09.883Z,5.04
2023-01-09T16:16:37.080Z,5.37
2023-01-09T16:19:04.011Z,5.32
2023-01-09T16:21:38.501Z,5.29
2023-01-09T16:24:14.010Z,5.22
2023-01-09T16:26:40.597Z,5.10
2023-01-09T16:29:27.730Z,5.09
2023-01-09T16:32:02.684Z,4.97
2023-01-09T16:34:30.107Z,4.88
2023-01-09T16:36:56.945Z,4.83
2023-01-09T16:39:25.589Z,4.73
2023-01-09T16:42:11.475Z,4.53
2023-01-09T16:44:38.102Z,4.69
2023-01-09T16:47:04.988Z,4.25
2023-01-09T16:49:31.593Z,4.26
2023-01-09T16:52:02.928Z,4.32
2023-01-09T16:54:30.489Z,4.27
2023-01-09T16:56:57.227Z,4.19
2023-01-09T16:59:27.377Z,4.45
2023-01-09T17:01:54.870Z,4.45
2023-01-09T17:04:23.853Z,4.12
2023-01-09T17:06:51.551Z,4.42
2023-01-09T17:09:20.476Z,4.46
2023-01-09T17:11:47.222Z,4.40
2023-01-09T17:14:14.790Z,4.26
2023-01-09T17:16:45.802Z,4.41
2023-01-09T17:19:18.662Z,4.57
2023-01-09T17:21:45.724Z,4.52
2023-01-09T17:24:31.061Z,4.48
2023-01-09T17:27:16.771Z,4.47
2023-01-09T17:29:44.601Z,4.54
2023-01-09T17:32:16.069Z,4.54
2023-01-09T17:34:43.290Z,4.45
2023-01-09T17:37:19.628Z,4.66
2023-01-09T17:39:46.569Z,4.77
2023-01-09T17:42:13.209Z,4.76
2023-01-09T17:44:39.834Z,4.72
2023-01-09T17:47:07.388Z,3.59
2023-01-09T17:49:34.290Z,4.32
2023-01-09T17:52:00.939Z,4.86
2023-01-09T17:54:27.501Z,4.75
2023-01-09T17:56:54.474Z,4.91
2023-01-09T17:59:21.169Z,4.96
2023-01-09T18:01:47.904Z,5.06
2023-01-09T18:04:14.526Z,4.95
2023-01-09T18:06:41.291Z,5.09
2023-01-09T18:09:08.540Z,5.11
2023-01-09T18:11:35.167Z,5.14
2023-01-09T18:14:01.861Z,4.57
2023-01-09T18:16:29.108Z,5.14
2023-01-09T18:18:58.753Z,5.12
2023-01-09T18:21:26.818Z,5.14
2023-01-09T18:23:54.388Z,5.11
2023-01-09T18:26:22.444Z,5.10
2023-01-09T18:28:53.288Z,5.16
2023-01-09T18:31:24.550Z,5.13
2023-01-09T18:33:52.777Z,5.04
2023-01-09T18:36:22.541Z,5.18
2023-01-09T18:38:51.998Z,5.08
2023-01-09T18:41:19.482Z,5.19
2023-01-09T18:43:51.326Z,5.16
2023-01-09T18:46:25.754Z,5.16
2023-01-09T18:48:57.862Z,4.41
2023-01-09T18:51:27.171Z,4.20
2023-01-09T18:53:55.953Z,5.24
2023-01-09T18:56:23.563Z,5.27
2023-01-09T18:58:53.559Z,5.30
2023-01-09T19:01:20.258Z,5.26
2023-01-09T19:03:47.016Z,5.31
2023-01-09T19:06:13.658Z,5.31
2023-01-09T19:08:40.547Z,5.24
2023-01-09T19:11:07.414Z,5.27
2023-01-09T19:13:37.351Z,5.21
2023-01-09T19:16:06.066Z,5.33
2023-01-09T19:18:35.265Z,5.26
2023-01-09T19:21:02.547Z,5.27
2023-01-09T19:23:29.202Z,5.36
2023-01-09T19:25:57.735Z,5.36
2023-01-09T19:28:24.537Z,4.96
2023-01-09T19:30:57.918Z,5.34
2023-01-09T19:33:25.361Z,5.39
2023-01-09T19:35:53.935Z,5.37
2023-01-09T19:38:23.980Z,5.36
2023-01-09T19:40:52.058Z,5.41
2023-01-09T19:43:29.756Z,5.03
2023-01-09T19:45:56.855Z,4.84
2023-01-09T19:48:26.472Z,5.36
2023-01-09T19:51:06.691Z,5.03
2023-01-09T19:53:36.126Z,2.71
2023-01-09T19:56:15.779Z,5.26
2023-01-09T19:58:49.803Z,5.31
2023-01-09T20:01:21.130Z,5.25
2023-01-09T20:03:50.335Z,5.28
2023-01-09T20:06:24.353Z,5.27
2023-01-09T20:08:57.813Z,4.83
2023-01-09T20:11:28.949Z,5.17
2023-01-09T20:14:00.629Z,5.22
2023-01-09T20:16:31.704Z,5.12
2023-01-09T20:19:00.847Z,4.32
2023-01-09T20:21:28.896Z,5.29
2023-01-09T20:23:59.668Z,5.28
2023-01-09T20:26:27.525Z,5.25
2023-01-09T20:28:55.659Z,5.19
2023-01-09T20:31:24.192Z,5.21
2023-01-09T20:33:51.389Z,5.16
2023-01-09T20:36:19.554Z,5.08
2023-01-09T20:38:46.134Z,5.40
2023-01-09T20:41:23.183Z,5.29
2023-01-09T20:43:53.998Z,5.32
2023-01-09T20:46:23.367Z,5.25
2023-01-09T20:48:50.335Z,5.33
2023-01-09T20:51:17.855Z,5.25
2023-01-09T20:53:46.161Z,5.34
2023-01-09T20:56:13.070Z,5.37
2023-01-09T20:58:41.044Z,5.32
2023-01-09T21:01:11.800Z,5.39
2023-01-09T21:03:39.552Z,5.39
2023-01-09T21:06:11.373Z,5.39
2023-01-09T21:08:38.545Z,5.38
2023-01-09T21:11:05.722Z,5.40
2023-01-09T21:13:32.554Z,5.34
2023-01-09T21:16:04.604Z,5.28
2023-01-09T21:18:31.704Z,5.12
2023-01-09T21:21:02.421Z,5.22
2023-01-09T21:23:28.994Z,5.07
2023-01-09T21:25:55.627Z,5.07
2023-01-09T21:28:23.650Z,5.06
2023-01-09T21:30:50.328Z,5.09
2023-01-09T21:33:21.007Z,4.88
2023-01-09T21:35:57.837Z,4.98
2023-01-09T21:38:26.252Z,4.90
2023-01-09T21:40:53.990Z,4.76
2023-01-09T21:43:48.661Z,4.98
2023-01-09T21:46:36.787Z,4.64
2023-01-09T21:49:06.879Z,5.13
2023-01-09T21:51:38.982Z,4.44
2023-01-09T21:54:05.620Z,4.66
2023-01-09T21:56:32.218Z,4.43
2023-01-09T21:58:58.795Z,4.15
2023-01-09T22:01:25.524Z,3.55
2023-01-09T22:03:55.959Z,3.82
2023-01-09T22:06:23.296Z,4.02
2023-01-09T22:08:50.038Z,4.32
2023-01-09T22:11:16.860Z,4.57
2023-01-09T22:13:47.976Z,4.02
2023-01-09T22:16:14.615Z,4.48
2023-01-09T22:18:41.494Z,4.35
2023-01-09T22:21:09.587Z,4.30
2023-01-09T22:23:36.220Z,5.04
2023-01-09T22:26:13.697Z,5.12
2023-01-09T22:28:41.033Z,5.12
2023-01-09T22:31:15.331Z,5.16
2023-01-09T22:33:42.575Z,5.21
2023-01-09T22:36:11.529Z,5.07
2023-01-09T22:38:38.360Z,5.22
2023-01-09T22:41:05.557Z,4.94
2023-01-09T22:43:32.163Z,5.20
2023-01-09T22:46:00.975Z,5.37
2023-01-09T22:48:31.422Z,5.42
2023-01-09T22:51:14.020Z,5.28
2023-01-09T22:53:40.703Z,5.45
2023-01-09T22:56:10.083Z,5.45
2023-01-09T22:58:36.897Z,5.44
2023-01-09T23:01:04.504Z,5.41
2023-01-09T23:03:31.647Z,4.79
2023-01-09T23:06:15.508Z,5.48
2023-01-09T23:08:42.736Z,5.11
2023-01-09T23:11:16.640Z,5.23
2023-01-09T23:13:43.278Z,5.14
2023-01-09T23:16:09.938Z,4.96
2023-01-09T23:18:36.496Z,5.37
2023-01-09T23:21:04.704Z,5.41
2023-01-09T23:23:32.232Z,5.44
2023-01-09T23:26:02.139Z,5.28
2023-01-09T23:28:30.453Z,5.34
2023-01-09T23:30:57.371Z,4.99
2023-01-09T23:33:24.001Z,5.37
2023-01-09T23:35:50.617Z,4.90
2023-01-09T23:38:17.270Z,5.30
2023-01-09T23:40:43.899Z,5.31
2023-01-09T23:43:12.279Z,5.19
2023-01-09T23:45:44.364Z,5.31
2023-01-09T23:48:13.767Z,5.28
2023-01-09T23:50:50.939Z,5.27
2023-01-09T23:53:19.584Z,5.32
2023-01-09T23:55:46.532Z,5.42
2023-01-09T23:58:13.146Z,5.39
